Time;durP1;ratioP1;P1;durP2;ratioP2;P2;SDS_P1;SDS_P2;PMS_P1;PMS_P2;Temp;Humidity;BMP_temperature;BMP_pressure;BME280_temperature;BME280_humidity;BME280_pressure;Samples;Min_cycle;Max_cycle;Signal;HPM_P1;HPM_P2
2024/01/17 00:01:27;;;;;;;11.93;5.97;;;-6.00;27.20;;;;;;5041378;28;46359;-69
2024/01/17 00:03:53;;;;;;;16.53;7.37;;;-5.90;26.90;;;;;;5036200;28;46595;-67
2024/01/17 00:06:18;;;;;;;15.20;6.37;;;-5.80;26.90;;;;;;5041561;28;46383;-67
2024/01/17 00:08:44;;;;;;;13.03;6.50;;;-5.80;26.90;;;;;;5040701;28;46372;-67
2024/01/17 00:11:10;;;;;;;15.47;7.40;;;-5.70;26.90;;;;;;5040779;28;46650;-70
2024/01/17 00:13:35;;;;;;;13.43;7.10;;;-5.60;27.00;;;;;;5037951;28;47254;-68
2024/01/17 00:16:01;;;;;;;16.63;6.40;;;-5.30;27.20;;;;;;5040926;28;46415;-69
2024/01/17 00:18:27;;;;;;;13.07;6.67;;;-5.10;26.80;;;;;;5040027;28;46443;-67
2024/01/17 00:20:52;;;;;;;13.83;6.90;;;-4.90;26.50;;;;;;5039383;28;46468;-67
2024/01/17 00:23:18;;;;;;;9.30;5.93;;;-4.70;26.30;;;;;;5041374;28;47104;-68
2024/01/17 00:25:43;;;;;;;14.67;6.40;;;-4.50;26.30;;;;;;5040166;28;46416;-68
2024/01/17 00:28:09;;;;;;;13.43;6.50;;;-4.40;26.10;;;;;;5039008;28;46369;-68
2024/01/17 00:30:34;;;;;;;11.83;6.57;;;-4.10;26.00;;;;;;5040228;28;47099;-67
2024/01/17 00:33:00;;;;;;;10.90;6.23;;;-3.90;25.70;;;;;;5040544;28;46489;-69
2024/01/17 00:35:25;;;;;;;13.80;6.37;;;-3.80;25.60;;;;;;5017403;28;47138;-67
2024/01/17 00:37:51;;;;;;;11.53;6.17;;;-3.50;25.60;;;;;;5040694;28;46297;-67
2024/01/17 00:40:17;;;;;;;11.47;6.00;;;-3.40;25.50;;;;;;5039733;28;46647;-68
2024/01/17 00:42:42;;;;;;;10.80;6.57;;;-3.30;25.40;;;;;;5040339;28;46492;-70
2024/01/17 00:45:08;;;;;;;11.00;6.03;;;-3.20;25.60;;;;;;5039978;28;46532;-68
2024/01/17 00:47:34;;;;;;;12.63;7.30;;;-3.10;25.60;;;;;;5038516;28;46401;-68
2024/01/17 00:50:01;;;;;;;12.20;6.50;;;-3.00;25.70;;;;;;5043871;28;46654;-67
2024/01/17 00:52:26;;;;;;;10.52;6.50;;;-2.90;25.70;;;;;;5041025;28;46404;-69
2024/01/17 00:54:52;;;;;;;14.40;7.77;;;-2.80;25.80;;;;;;5041627;28;46419;-67
2024/01/17 00:57:17;;;;;;;12.20;6.63;;;-2.70;25.90;;;;;;5044192;28;46695;-68
2024/01/17 00:59:43;;;;;;;14.50;7.17;;;-2.60;26.10;;;;;;5039094;28;46437;-68
2024/01/17 01:02:09;;;;;;;11.37;6.70;;;-2.60;26.10;;;;;;5043990;28;46498;-68
2024/01/17 01:04:34;;;;;;;10.60;6.30;;;-2.60;26.40;;;;;;5043867;28;46581;-68
2024/01/17 01:07:00;;;;;;;15.17;7.17;;;-2.50;26.50;;;;;;5044339;28;46358;-68
2024/01/17 01:09:25;;;;;;;17.33;7.67;;;-2.40;26.60;;;;;;5041338;28;46429;-69
2024/01/17 01:11:51;;;;;;;10.50;6.10;;;-2.40;26.60;;;;;;5039219;28;46557;-68
2024/01/17 01:14:16;;;;;;;16.10;7.37;;;-2.30;26.70;;;;;;5042254;28;45896;-68
2024/01/17 01:16:43;;;;;;;16.47;8.50;;;-2.20;26.80;;;;;;5043545;28;46415;-67
2024/01/17 01:19:09;;;;;;;11.25;6.93;;;-2.10;26.80;;;;;;5040626;28;46394;-67
2024/01/17 01:21:34;;;;;;;11.70;6.60;;;-2.00;26.80;;;;;;5043514;28;46325;-69
2024/01/17 01:24:00;;;;;;;14.07;6.60;;;-2.00;26.90;;;;;;5041506;28;46985;-68
2024/01/17 01:26:25;;;;;;;10.70;6.20;;;-1.90;26.80;;;;;;5041906;28;46420;-68
2024/01/17 01:28:51;;;;;;;11.27;6.07;;;-1.80;26.80;;;;;;5044193;28;46381;-69
2024/01/17 01:31:16;;;;;;;10.67;6.30;;;-1.70;27.00;;;;;;5040005;28;46682;-66
2024/01/17 01:33:42;;;;;;;10.47;5.97;;;-1.60;27.10;;;;;;5044564;28;46301;-68
2024/01/17 01:36:07;;;;;;;9.20;5.57;;;-1.50;27.00;;;;;;5040585;28;46485;-69
2024/01/17 01:38:33;;;;;;;9.53;5.00;;;-1.40;26.90;;;;;;5038707;28;46802;-69
2024/01/17 01:40:59;;;;;;;9.53;5.00;;;-1.30;27.00;;;;;;5040048;28;47061;-68
2024/01/17 01:43:25;;;;;;;9.80;6.20;;;-1.30;27.10;;;;;;5039240;28;46432;-69
2024/01/17 01:46:03;;;;;;;12.13;5.50;;;-1.20;27.20;;;;;;5042196;28;46435;-68
2024/01/17 01:48:29;;;;;;;8.40;5.07;;;-1.10;27.30;;;;;;5040861;28;46347;-68
2024/01/17 01:50:54;;;;;;;12.53;5.20;;;-1.00;27.40;;;;;;5039181;28;47309;-67
2024/01/17 01:53:20;;;;;;;9.40;5.30;;;-0.90;27.40;;;;;;5040810;28;46515;-67
2024/01/17 01:55:46;;;;;;;10.63;6.63;;;-0.90;27.50;;;;;;5043209;28;46361;-68
2024/01/17 01:58:13;;;;;;;12.47;6.37;;;-1.00;28.20;;;;;;5043428;28;46624;-68
2024/01/17 02:00:38;;;;;;;8.40;5.30;;;-1.00;28.60;;;;;;5042840;28;46472;-68
2024/01/17 02:03:04;;;;;;;7.27;4.47;;;-0.90;28.90;;;;;;5041041;28;46499;-68
2024/01/17 02:05:30;;;;;;;10.70;5.37;;;-0.80;28.70;;;;;;5043720;28;46831;-66
2024/01/17 02:07:56;;;;;;;8.27;4.90;;;-0.70;28.70;;;;;;5040425;28;45877;-68
2024/01/17 02:10:22;;;;;;;11.68;6.05;;;-0.60;28.60;;;;;;5040240;28;46485;-68
2024/01/17 02:12:49;;;;;;;12.10;5.53;;;-0.40;28.60;;;;;;5042120;28;46397;-69
2024/01/17 02:15:14;;;;;;;11.40;5.10;;;-0.30;28.70;;;;;;5040500;28;45814;-70
2024/01/17 02:17:41;;;;;;;7.70;5.40;;;-0.30;29.10;;;;;;5037195;28;46361;-68
2024/01/17 02:20:07;;;;;;;9.73;4.88;;;-0.20;29.40;;;;;;5039633;28;46419;-67
2024/01/17 02:22:33;;;;;;;8.00;4.72;;;-0.10;29.50;;;;;;5041693;28;46452;-66
2024/01/17 02:25:03;;;;;;;8.93;4.60;;;0.10;29.60;;;;;;5042707;28;46408;-68
2024/01/17 02:27:29;;;;;;;8.60;5.60;;;0.20;29.60;;;;;;5043278;28;46695;-69
2024/01/17 02:29:54;;;;;;;12.43;6.57;;;0.30;29.40;;;;;;5007987;28;47010;-68
2024/01/17 02:32:21;;;;;;;9.30;6.13;;;0.40;29.50;;;;;;5041378;28;46352;-68
2024/01/17 02:34:47;;;;;;;10.50;6.07;;;0.50;29.90;;;;;;5042427;28;46132;-66
2024/01/17 02:37:14;;;;;;;11.43;6.90;;;0.60;30.80;;;;;;5040743;28;46722;-68
2024/01/17 02:39:40;;;;;;;12.70;7.70;;;0.50;31.20;;;;;;5042123;28;47328;-68
2024/01/17 02:42:05;;;;;;;12.13;7.30;;;0.50;31.20;;;;;;5043218;28;46406;-68
2024/01/17 02:44:31;;;;;;;16.03;7.90;;;0.50;31.30;;;;;;5037484;28;46283;-67
2024/01/17 02:46:57;;;;;;;13.77;7.50;;;0.60;31.40;;;;;;5042860;28;46506;-67
2024/01/17 02:49:22;;;;;;;12.50;7.23;;;0.70;31.50;;;;;;5020316;28;49100;-67
2024/01/17 02:51:48;;;;;;;13.73;8.33;;;0.80;31.50;;;;;;5022079;28;46462;-67
2024/01/17 02:54:14;;;;;;;15.70;8.07;;;0.80;31.50;;;;;;5043435;28;46408;-67
2024/01/17 02:56:39;;;;;;;15.90;7.27;;;0.90;32.80;;;;;;5039718;28;46435;-67
2024/01/17 02:59:06;;;;;;;11.90;7.13;;;0.90;31.60;;;;;;5043390;28;47019;-67
2024/01/17 03:01:33;;;;;;;14.48;8.10;;;1.00;31.70;;;;;;5041624;28;45921;-68
2024/01/17 03:03:58;;;;;;;15.77;8.13;;;1.10;31.70;;;;;;5037774;28;46706;-68
2024/01/17 03:06:24;;;;;;;14.63;7.90;;;1.10;31.80;;;;;;5042629;28;46465;-67
2024/01/17 03:08:49;;;;;;;14.57;7.80;;;1.20;31.50;;;;;;5019449;28;48100;-67
2024/01/17 03:11:15;;;;;;;11.20;7.07;;;1.30;31.40;;;;;;5042387;28;46442;-67
2024/01/17 03:13:40;;;;;;;11.70;7.40;;;1.40;31.30;;;;;;5041041;28;46397;-68
2024/01/17 03:16:06;;;;;;;11.20;7.23;;;1.40;31.50;;;;;;5041340;28;46532;-67
2024/01/17 03:18:32;;;;;;;18.05;8.60;;;1.40;31.80;;;;;;5040938;28;46115;-67
2024/01/17 03:20:58;;;;;;;16.90;8.70;;;1.40;32.00;;;;;;5024041;28;46274;-68
2024/01/17 03:23:23;;;;;;;23.70;11.43;;;1.50;32.10;;;;;;5038354;28;46458;-69
2024/01/17 03:25:49;;;;;;;26.33;12.10;;;1.50;32.10;;;;;;5041979;28;46500;-68
2024/01/17 03:28:14;;;;;;;26.10;11.87;;;1.60;32.20;;;;;;5040225;28;46348;-68
2024/01/17 03:30:40;;;;;;;28.33;14.90;;;1.60;32.20;;;;;;5036782;28;46693;-69
2024/01/17 03:33:05;;;;;;;30.83;14.30;;;1.80;32.30;;;;;;5039791;28;46769;-68
2024/01/17 03:35:31;;;;;;;41.10;17.73;;;1.80;32.40;;;;;;5042577;28;46691;-67
2024/01/17 03:37:57;;;;;;;34.80;14.73;;;1.90;32.50;;;;;;5042540;28;46583;-68
2024/01/17 03:40:23;;;;;;;26.73;12.18;;;1.90;32.40;;;;;;5040809;28;46424;-68
2024/01/17 03:42:48;;;;;;;22.83;11.83;;;2.10;33.80;;;;;;5038677;28;46466;-67
2024/01/17 03:45:14;;;;;;;19.30;9.87;;;2.10;32.60;;;;;;5042167;28;46480;-66
2024/01/17 03:47:40;;;;;;;18.97;9.23;;;2.10;32.60;;;;;;5041092;28;46341;-67
2024/01/17 03:50:05;;;;;;;14.20;8.40;;;2.20;32.70;;;;;;5041725;28;45805;-68
2024/01/17 03:52:31;;;;;;;19.20;7.87;;;2.20;32.40;;;;;;5042650;28;46420;-67
2024/01/17 03:54:57;;;;;;;25.70;12.60;;;2.30;32.70;;;;;;5038808;28;46558;-68
2024/01/17 03:57:23;;;;;;;21.58;12.02;;;2.20;32.70;;;;;;5038691;28;48127;-68
2024/01/17 03:59:48;;;;;;;28.43;13.23;;;2.20;32.70;;;;;;5022489;28;46385;-69
2024/01/17 04:02:14;;;;;;;28.67;12.93;;;2.20;33.60;;;;;;5042319;28;46322;-68
2024/01/17 04:04:40;;;;;;;20.10;10.60;;;2.20;33.80;;;;;;5041825;28;46342;-69
2024/01/17 04:07:08;;;;;;;18.10;9.30;;;2.30;33.80;;;;;;5038278;28;46415;-70
2024/01/17 04:09:34;;;;;;;16.27;9.10;;;2.30;33.80;;;;;;5041562;28;46451;-68
2024/01/17 04:11:59;;;;;;;18.40;9.47;;;2.40;33.80;;;;;;5039983;28;46414;-68
2024/01/17 04:14:25;;;;;;;14.23;9.13;;;2.40;33.90;;;;;;5038947;28;46707;-68
2024/01/17 04:16:51;;;;;;;16.73;8.50;;;2.50;34.10;;;;;;5022059;28;48226;-69
2024/01/17 04:19:16;;;;;;;14.13;8.50;;;2.50;34.20;;;;;;5042044;28;46447;-69
2024/01/17 04:21:42;;;;;;;12.70;6.20;;;2.70;34.40;;;;;;5044512;28;46548;-68
2024/01/17 04:24:08;;;;;;;10.30;5.23;;;2.70;34.40;;;;;;5045417;28;46607;-68
2024/01/17 04:26:33;;;;;;;9.47;5.53;;;2.70;34.20;;;;;;5041309;28;47301;-68
2024/01/17 04:28:59;;;;;;;10.10;5.70;;;2.70;34.20;;;;;;5045719;28;45809;-68
2024/01/17 04:31:29;;;;;;;8.97;5.70;;;2.80;34.20;;;;;;5043157;28;46412;-69
2024/01/17 04:33:56;;;;;;;9.95;6.55;;;2.80;34.20;;;;;;5042915;28;46378;-67
2024/01/17 04:36:24;;;;;;;9.77;5.30;;;2.90;34.50;;;;;;5043710;28;46427;-67
2024/01/17 04:38:49;;;;;;;7.55;4.80;;;2.90;34.40;;;;;;5045138;28;46474;-68
2024/01/17 04:41:16;;;;;;;7.57;4.60;;;2.80;35.80;;;;;;5025179;28;46316;-68
2024/01/17 04:43:42;;;;;;;7.10;3.22;;;2.90;34.90;;;;;;5042825;28;45844;-68
2024/01/17 04:46:12;;;;;;;6.43;3.95;;;2.80;35.10;;;;;;5044143;28;47159;-69
2024/01/17 04:48:39;;;;;;;5.50;3.35;;;2.80;35.90;;;;;;5039159;28;46679;-68
2024/01/17 04:51:05;;;;;;;7.30;4.13;;;2.70;37.00;;;;;;5039312;28;46487;-68
2024/01/17 04:53:32;;;;;;;5.55;3.58;;;2.60;38.40;;;;;;5044861;28;45835;-68
2024/01/17 04:55:58;;;;;;;5.40;3.15;;;2.50;39.60;;;;;;5042580;28;46533;-67
2024/01/17 04:58:24;;;;;;;6.03;3.50;;;2.50;41.20;;;;;;5041613;28;46487;-67
2024/01/17 05:00:49;;;;;;;5.90;3.20;;;2.40;42.20;;;;;;5044819;28;46388;-67
2024/01/17 05:03:16;;;;;;;5.53;3.33;;;2.50;42.50;;;;;;5040853;28;46499;-67
2024/01/17 05:05:44;;;;;;;5.20;2.97;;;2.40;43.00;;;;;;5040788;28;46492;-66
2024/01/17 05:08:11;;;;;;;4.13;2.83;;;2.40;43.00;;;;;;5041299;28;46587;-67
2024/01/17 05:10:36;;;;;;;4.18;2.92;;;2.50;42.90;;;;;;5042548;28;45781;-66
2024/01/17 05:13:02;;;;;;;5.27;3.30;;;2.50;42.60;;;;;;5043037;28;46646;-68
2024/01/17 05:15:28;;;;;;;6.00;3.60;;;2.50;42.40;;;;;;5041441;28;47124;-69
2024/01/17 05:17:54;;;;;;;5.03;3.20;;;2.60;42.50;;;;;;5042643;28;45880;-70
2024/01/17 05:20:20;;;;;;;4.80;3.33;;;2.50;42.90;;;;;;5044249;28;46373;-68
2024/01/17 05:22:45;;;;;;;5.37;3.20;;;2.60;43.10;;;;;;5039332;28;46404;-68
2024/01/17 05:25:11;;;;;;;5.17;3.23;;;2.60;43.20;;;;;;5043022;28;46454;-71
2024/01/17 05:27:37;;;;;;;7.00;3.60;;;2.70;43.40;;;;;;5044719;28;46463;-67
2024/01/17 05:30:04;;;;;;;6.95;3.35;;;2.70;43.30;;;;;;5041927;28;46698;-66
2024/01/17 05:32:30;;;;;;;6.05;3.40;;;2.70;43.30;;;;;;5039690;28;46271;-67
2024/01/17 05:34:55;;;;;;;5.77;3.40;;;2.70;43.40;;;;;;5044218;28;46441;-67
2024/01/17 05:37:23;;;;;;;8.30;4.87;;;2.70;43.50;;;;;;5043351;28;46403;-68
2024/01/17 05:39:49;;;;;;;7.88;3.78;;;2.70;43.30;;;;;;5043599;28;46515;-68
2024/01/17 05:42:14;;;;;;;3.83;2.77;;;2.70;43.10;;;;;;5043557;28;46329;-68
2024/01/17 05:44:40;;;;;;;5.43;3.03;;;2.70;43.10;;;;;;5042616;28;46913;-69
2024/01/17 05:47:07;;;;;;;5.30;2.93;;;2.70;43.20;;;;;;5038896;28;46559;-68
2024/01/17 05:49:33;;;;;;;4.00;2.45;;;2.70;43.50;;;;;;5041833;28;46367;-67
2024/01/17 05:51:58;;;;;;;3.50;1.87;;;2.60;44.30;;;;;;5041991;28;45920;-68
2024/01/17 05:54:24;;;;;;;3.70;2.07;;;2.60;45.60;;;;;;5041319;28;46429;-66
2024/01/17 05:56:49;;;;;;;2.53;1.90;;;2.50;46.20;;;;;;5042761;28;46322;-67
2024/01/17 05:59:15;;;;;;;3.87;1.90;;;2.50;46.20;;;;;;5042440;28;46387;-67
2024/01/17 06:01:41;;;;;;;2.23;1.50;;;2.40;46.70;;;;;;5041012;28;46365;-68
2024/01/17 06:04:06;;;;;;;3.83;1.70;;;2.60;47.40;;;;;;5043870;28;46281;-67
2024/01/17 06:06:32;;;;;;;3.70;1.80;;;2.50;47.60;;;;;;5041782;28;45793;-67
2024/01/17 06:08:58;;;;;;;2.70;1.70;;;2.50;47.40;;;;;;5038695;28;46420;-67
2024/01/17 06:11:23;;;;;;;2.20;1.53;;;2.60;47.00;;;;;;5038057;28;46548;-69
2024/01/17 06:13:49;;;;;;;3.53;1.73;;;2.60;46.30;;;;;;5042226;28;46412;-68
2024/01/17 06:16:14;;;;;;;3.53;2.30;;;2.60;46.30;;;;;;5039601;28;46379;-69
2024/01/17 06:18:40;;;;;;;2.60;1.63;;;2.70;46.40;;;;;;5041323;28;46444;-67
2024/01/17 06:21:05;;;;;;;3.87;1.90;;;2.70;46.40;;;;;;5021601;28;46809;-67
2024/01/17 06:23:31;;;;;;;3.47;2.10;;;2.70;46.40;;;;;;5042802;28;46123;-69
2024/01/17 06:25:57;;;;;;;3.10;2.27;;;2.70;46.30;;;;;;5038596;28;46516;-70
2024/01/17 06:28:22;;;;;;;2.17;1.60;;;2.70;46.40;;;;;;5042626;28;46460;-69
2024/01/17 06:30:48;;;;;;;2.57;1.70;;;2.70;46.40;;;;;;5021799;28;46335;-66
2024/01/17 06:33:13;;;;;;;2.67;1.80;;;2.70;46.40;;;;;;5037958;28;46662;-68
2024/01/17 06:35:39;;;;;;;4.67;2.20;;;2.70;46.30;;;;;;5040317;28;46458;-67
2024/01/17 06:38:05;;;;;;;3.10;2.10;;;2.70;46.40;;;;;;5042840;28;46400;-67
2024/01/17 06:40:31;;;;;;;4.13;2.30;;;2.80;46.50;;;;;;5037819;28;46455;-66
2024/01/17 06:42:57;;;;;;;4.18;2.33;;;2.70;46.30;;;;;;5042730;28;47409;-67
2024/01/17 06:45:24;;;;;;;5.23;3.20;;;2.70;46.40;;;;;;5042764;28;46587;-67
2024/01/17 06:47:49;;;;;;;3.72;2.35;;;2.60;47.70;;;;;;5042920;28;46416;-66
2024/01/17 06:50:15;;;;;;;3.80;2.33;;;2.70;48.30;;;;;;5042671;28;46515;-66
2024/01/17 06:52:41;;;;;;;2.90;2.20;;;2.70;48.20;;;;;;5039235;28;47896;-67
2024/01/17 06:55:07;;;;;;;3.40;2.13;;;2.70;47.70;;;;;;5038273;28;46405;-70
2024/01/17 06:57:33;;;;;;;2.93;2.20;;;2.80;47.70;;;;;;5041747;28;46389;-66
2024/01/17 06:59:58;;;;;;;3.53;2.40;;;2.80;47.90;;;;;;5040009;28;46418;-65
2024/01/17 07:02:24;;;;;;;5.53;2.47;;;2.80;47.50;;;;;;5038148;28;47138;-66
2024/01/17 07:04:50;;;;;;;11.57;2.10;;;2.80;47.60;;;;;;5038147;28;46401;-65
2024/01/17 07:07:16;;;;;;;3.10;1.70;;;2.80;47.60;;;;;;5043070;28;46496;-65
2024/01/17 07:09:41;;;;;;;3.20;2.07;;;2.80;48.00;;;;;;5041779;28;46666;-66
2024/01/17 07:12:07;;;;;;;3.57;2.43;;;2.80;48.80;;;;;;5038342;28;46436;-66
2024/01/17 07:14:33;;;;;;;3.20;2.07;;;2.70;49.30;;;;;;5042991;28;46777;-65
2024/01/17 07:16:58;;;;;;;5.70;3.17;;;2.80;49.10;;;;;;5040084;28;46460;-66
2024/01/17 07:19:24;;;;;;;3.90;2.60;;;2.90;48.50;;;;;;5039431;28;46097;-66
2024/01/17 07:21:49;;;;;;;9.97;4.13;;;3.00;48.30;;;;;;5042983;28;47264;-66
2024/01/17 07:24:15;;;;;;;4.10;2.40;;;3.00;47.70;;;;;;5038995;28;46354;-66
2024/01/17 07:26:40;;;;;;;3.63;2.50;;;3.10;46.70;;;;;;5033255;28;46465;-66
2024/01/17 07:29:06;;;;;;;4.53;2.90;;;3.20;48.00;;;;;;5039982;28;46459;-66
2024/01/17 07:31:32;;;;;;;3.50;2.20;;;3.20;46.80;;;;;;5038349;28;46939;-67
2024/01/17 07:33:58;;;;;;;3.23;2.20;;;3.20;46.80;;;;;;5038477;28;45971;-66
2024/01/17 07:36:24;;;;;;;4.73;1.70;;;3.20;47.20;;;;;;5041393;28;46409;-67
2024/01/17 07:38:49;;;;;;;2.93;1.73;;;3.20;47.40;;;;;;5036997;28;46368;-67
2024/01/17 07:41:15;;;;;;;2.20;1.60;;;3.20;47.50;;;;;;5038036;28;46394;-67
2024/01/17 07:43:40;;;;;;;3.60;1.80;;;3.20;48.30;;;;;;5035290;28;46757;-67
2024/01/17 07:46:06;;;;;;;2.77;1.90;;;3.30;47.60;;;;;;5036690;28;46721;-67
2024/01/17 07:48:31;;;;;;;2.60;1.80;;;3.30;47.10;;;;;;5042638;28;46332;-66
2024/01/17 07:50:57;;;;;;;4.63;2.60;;;3.40;47.00;;;;;;5040328;28;46517;-66
2024/01/17 07:53:26;;;;;;;3.07;2.07;;;3.40;47.00;;;;;;5029492;28;46623;-66
2024/01/17 07:55:52;;;;;;;4.55;2.47;;;3.50;47.00;;;;;;5033217;28;46774;-67
2024/01/17 07:58:18;;;;;;;3.80;2.23;;;3.60;47.20;;;;;;5032564;28;46562;-67
2024/01/17 08:00:44;;;;;;;4.50;2.10;;;3.50;47.10;;;;;;5039170;28;46451;-67
2024/01/17 08:03:09;;;;;;;4.10;2.10;;;3.50;47.00;;;;;;5037329;28;46385;-66
2024/01/17 08:05:35;;;;;;;2.40;1.80;;;3.60;47.20;;;;;;5039438;28;46608;-66
2024/01/17 08:08:00;;;;;;;4.77;2.60;;;3.60;47.20;;;;;;5040042;28;46385;-67
2024/01/17 08:10:26;;;;;;;5.07;3.10;;;3.70;47.30;;;;;;5036735;28;46361;-67
2024/01/17 08:12:52;;;;;;;5.17;2.80;;;3.70;47.30;;;;;;5040235;28;47038;-67
2024/01/17 08:15:18;;;;;;;2.70;2.13;;;3.70;47.20;;;;;;5040898;28;46377;-66
2024/01/17 08:17:45;;;;;;;2.78;2.20;;;3.70;47.10;;;;;;5035055;28;46495;-67
2024/01/17 08:20:12;;;;;;;3.10;2.10;;;3.80;46.80;;;;;;5038254;28;46442;-67
2024/01/17 08:22:39;;;;;;;3.60;2.50;;;3.70;46.70;;;;;;5034962;28;46563;-66
2024/01/17 08:25:05;;;;;;;5.53;2.45;;;3.80;46.40;;;;;;5034185;28;47559;-67
2024/01/17 08:27:30;;;;;;;4.80;2.70;;;3.80;46.40;;;;;;5039733;28;46401;-67
2024/01/17 08:29:57;;;;;;;3.40;2.00;;;3.80;46.40;;;;;;5036052;28;46358;-66
2024/01/17 08:32:22;;;;;;;2.88;1.88;;;3.80;46.30;;;;;;5037150;28;46170;-67
2024/01/17 08:34:48;;;;;;;3.27;2.10;;;3.80;46.20;;;;;;5039110;28;46882;-67
2024/01/17 08:37:14;;;;;;;3.70;1.83;;;3.90;46.50;;;;;;5036497;28;46716;-68
2024/01/17 08:39:43;;;;;;;2.73;1.97;;;3.80;46.60;;;;;;5033461;28;47608;-67
2024/01/17 08:42:10;;;;;;;3.35;1.92;;;3.80;46.70;;;;;;5035629;28;46617;-66
2024/01/17 08:44:36;;;;;;;6.72;3.55;;;3.90;46.60;;;;;;5032965;28;46322;-67
2024/01/17 08:47:02;;;;;;;3.53;2.13;;;3.90;46.40;;;;;;5037548;28;45916;-68
2024/01/17 08:49:28;;;;;;;5.32;2.42;;;4.00;46.10;;;;;;5032445;28;47982;-67
2024/01/17 08:51:54;;;;;;;3.73;2.53;;;4.10;45.80;;;;;;5020986;28;46374;-66
2024/01/17 08:54:21;;;;;;;4.63;2.57;;;4.10;45.20;;;;;;5035363;28;46477;-67
2024/01/17 08:56:46;;;;;;;5.23;2.00;;;4.10;45.10;;;;;;5039134;28;46633;-68
2024/01/17 08:59:12;;;;;;;4.47;1.67;;;4.10;44.90;;;;;;5036307;28;46498;-68
2024/01/17 09:01:38;;;;;;;4.17;2.27;;;4.10;44.90;;;;;;5032308;28;46788;-65
2024/01/17 09:04:03;;;;;;;3.10;1.80;;;4.10;45.10;;;;;;5038087;28;46535;-67
2024/01/17 09:06:29;;;;;;;3.37;2.10;;;4.10;45.00;;;;;;5039307;28;46472;-66
2024/01/17 09:08:54;;;;;;;3.30;1.77;;;4.10;45.30;;;;;;5041558;28;46457;-66
2024/01/17 09:11:20;;;;;;;3.03;2.10;;;4.10;45.50;;;;;;5036964;28;46715;-65
2024/01/17 09:13:48;;;;;;;4.43;2.10;;;4.00;45.70;;;;;;5040209;28;46311;-67
2024/01/17 09:16:14;;;;;;;3.90;2.53;;;4.00;45.70;;;;;;5042633;28;46151;-67
2024/01/17 09:18:39;;;;;;;3.43;2.40;;;4.10;45.80;;;;;;5040429;28;46463;-67
2024/01/17 09:21:05;;;;;;;4.53;2.60;;;4.00;45.90;;;;;;5039317;28;46626;-66
2024/01/17 09:23:31;;;;;;;8.25;2.60;;;4.00;46.00;;;;;;5041497;28;46475;-66
2024/01/17 09:25:57;;;;;;;3.77;2.20;;;4.10;45.90;;;;;;5040579;28;46592;-67
2024/01/17 09:28:22;;;;;;;2.87;2.00;;;4.10;45.80;;;;;;5021752;28;46525;-66
2024/01/17 09:30:48;;;;;;;3.50;2.17;;;4.10;45.80;;;;;;5038261;28;46441;-66
2024/01/17 09:33:14;;;;;;;4.70;2.30;;;4.10;46.10;;;;;;5035005;28;46417;-66
2024/01/17 09:35:42;;;;;;;4.37;2.43;;;4.10;46.10;;;;;;5030326;28;46505;-67
2024/01/17 09:38:08;;;;;;;3.87;2.53;;;4.20;46.00;;;;;;5039271;28;46445;-66
2024/01/17 09:40:34;;;;;;;3.13;1.90;;;4.20;45.80;;;;;;5064214;22;46457;-67
2024/01/17 09:43:00;;;;;;;2.87;1.80;;;4.20;45.60;;;;;;5052846;28;46438;-70
2024/01/17 09:45:29;;;;;;;3.20;2.07;;;4.30;45.60;;;;;;5055687;28;46345;-70
2024/01/17 09:47:56;;;;;;;4.00;2.30;;;4.30;45.50;;;;;;5054322;28;46760;-70
2024/01/17 09:50:22;;;;;;;3.58;2.40;;;4.10;46.50;;;;;;5056395;28;46535;-71
2024/01/17 09:52:49;;;;;;;9.15;5.30;;;4.00;47.50;;;;;;5044522;28;46459;-72
2024/01/17 09:55:19;;;;;;;7.83;4.57;;;4.00;47.50;;;;;;5052836;28;46416;-69
2024/01/17 09:57:50;;;;;;;11.03;5.13;;;4.20;47.70;;;;;;5050234;28;46431;-69
2024/01/17 10:00:17;;;;;;;2.80;1.98;;;4.20;47.00;;;;;;5051019;28;46369;-69
2024/01/17 10:02:43;;;;;;;4.43;2.75;;;4.10;47.60;;;;;;5050165;28;45819;-70
2024/01/17 10:05:11;;;;;;;4.40;2.80;;;4.00;47.50;;;;;;5053761;28;45920;-71
2024/01/17 10:07:37;;;;;;;5.82;3.10;;;4.00;48.50;;;;;;5050836;28;46494;-71
2024/01/17 10:10:04;;;;;;;4.10;2.42;;;3.90;49.30;;;;;;5052659;28;46478;-71
2024/01/17 10:12:30;;;;;;;4.25;2.20;;;3.80;49.90;;;;;;5045995;28;46582;-71
2024/01/17 10:14:55;;;;;;;4.50;1.93;;;3.90;49.90;;;;;;5050663;28;46472;-71
2024/01/17 10:17:21;;;;;;;5.27;2.37;;;4.00;49.10;;;;;;5054175;28;46091;-71
2024/01/17 10:19:47;;;;;;;6.10;3.10;;;4.10;48.80;;;;;;5045733;28;46312;-70
2024/01/17 10:22:13;;;;;;;5.93;3.30;;;4.20;48.30;;;;;;5052597;28;45809;-72
2024/01/17 10:24:39;;;;;;;5.60;2.90;;;4.40;47.80;;;;;;5057319;28;46395;-71
2024/01/17 10:27:09;;;;;;;4.60;2.90;;;4.50;47.90;;;;;;5051106;28;47066;-71
2024/01/17 10:29:37;;;;;;;3.88;2.28;;;4.70;46.60;;;;;;5054435;28;46416;-71
2024/01/17 10:32:03;;;;;;;4.67;2.43;;;4.80;45.80;;;;;;5051038;28;46469;-72
2024/01/17 10:34:29;;;;;;;4.13;2.60;;;4.90;45.20;;;;;;5050601;28;46553;-71
2024/01/17 10:36:55;;;;;;;3.37;2.40;;;4.90;45.20;;;;;;5053685;28;46405;-70
2024/01/17 10:39:22;;;;;;;4.30;2.33;;;4.80;45.40;;;;;;5037472;28;46528;-71
2024/01/17 10:41:54;;;;;;;3.93;2.57;;;4.80;45.40;;;;;;5055491;28;46479;-68
2024/01/17 10:44:20;;;;;;;3.40;2.57;;;4.80;45.50;;;;;;5051085;28;46354;-72
2024/01/17 10:46:53;;;;;;;3.28;2.20;;;4.70;45.70;;;;;;5052100;28;46209;-72
2024/01/17 10:49:23;;;;;;;5.53;2.70;;;4.60;46.40;;;;;;5050691;28;46352;-72
2024/01/17 10:52:03;;;;;;;4.25;2.25;;;4.40;47.20;;;;;;5054462;28;45892;-71
2024/01/17 10:54:50;;;;;;;2.93;2.00;;;4.40;47.80;;;;;;5050291;28;46380;-71
2024/01/17 10:57:18;;;;;;;2.37;1.50;;;4.40;47.80;;;;;;5052212;28;47190;-71
2024/01/17 10:59:47;;;;;;;2.92;1.70;;;4.30;47.80;;;;;;5031552;28;46772;-71
2024/01/17 11:02:20;;;;;;;2.93;1.80;;;4.40;47.80;;;;;;5045359;28;46413;-72
2024/01/17 11:04:57;;;;;;;4.03;2.00;;;4.40;48.70;;;;;;5059600;28;46447;-71
2024/01/17 11:07:24;;;;;;;5.00;1.70;;;4.50;48.70;;;;;;5053909;28;46464;-72
2024/01/17 11:09:51;;;;;;;2.35;1.65;;;4.50;48.70;;;;;;5053504;28;46321;-71
2024/01/17 11:12:18;;;;;;;3.63;1.93;;;4.60;49.00;;;;;;5050128;28;46424;-70
2024/01/17 11:14:47;;;;;;;6.10;1.50;;;4.70;48.70;;;;;;5040835;28;46517;-70
2024/01/17 11:17:15;;;;;;;3.83;1.80;;;4.70;48.10;;;;;;5049337;28;46170;-70
2024/01/17 11:19:44;;;;;;;2.60;1.65;;;4.80;48.20;;;;;;5037567;28;46843;-72
2024/01/17 11:22:12;;;;;;;4.20;2.00;;;4.90;48.30;;;;;;5050116;28;46518;-71
2024/01/17 11:24:46;;;;;;;4.17;2.27;;;4.90;48.30;;;;;;5056229;28;46555;-72
2024/01/17 11:27:51;;;;;;;2.30;1.60;;;5.10;47.90;;;;;;5048764;28;47247;-72
2024/01/17 11:30:35;;;;;;;2.83;1.87;;;5.00;47.90;;;;;;5047697;28;46395;-72
2024/01/17 11:33:10;;;;;;;3.90;2.27;;;5.00;48.30;;;;;;5052346;28;46809;-72
2024/01/17 11:35:49;;;;;;;3.73;1.90;;;5.10;48.40;;;;;;5051730;28;46401;-71
2024/01/17 11:38:29;;;;;;;5.03;2.00;;;5.10;48.40;;;;;;5050989;28;46424;-72
2024/01/17 11:40:56;;;;;;;3.95;1.67;;;5.10;48.10;;;;;;5045113;28;46559;-71
2024/01/17 11:43:22;;;;;;;4.53;1.70;;;5.10;47.80;;;;;;5047877;28;46608;-71
2024/01/17 11:45:50;;;;;;;3.30;1.70;;;5.00;48.30;;;;;;5050358;28;46460;-71
2024/01/17 11:48:23;;;;;;;3.27;1.60;;;5.10;48.40;;;;;;5051468;28;47157;-71
2024/01/17 11:51:14;;;;;;;3.00;1.60;;;5.20;48.50;;;;;;5044796;28;46429;-72
2024/01/17 11:53:46;;;;;;;3.33;2.00;;;5.30;47.80;;;;;;5051374;28;46400;-67
2024/01/17 11:56:16;;;;;;;2.97;1.33;;;5.40;47.50;;;;;;5050027;28;46376;-66
2024/01/17 11:58:47;;;;;;;2.30;1.40;;;5.40;47.40;;;;;;5053416;28;47684;-67
2024/01/17 12:01:26;;;;;;;2.30;1.60;;;5.40;47.40;;;;;;5048174;28;46687;-66
2024/01/17 12:03:52;;;;;;;3.47;2.00;;;5.30;47.70;;;;;;5054496;28;46352;-66
2024/01/17 12:06:22;;;;;;;3.60;2.00;;;5.30;48.50;;;;;;5053195;28;46401;-65
2024/01/17 12:08:56;;;;;;;2.60;1.70;;;5.50;47.90;;;;;;5050103;28;46835;-66
2024/01/17 12:11:23;;;;;;;3.50;2.40;;;5.60;47.30;;;;;;5044419;28;46456;-67
2024/01/17 12:13:52;;;;;;;2.63;1.80;;;5.90;46.60;;;;;;5045754;28;46532;-66
2024/01/17 12:16:21;;;;;;;3.17;2.10;;;6.00;46.10;;;;;;5048597;28;46496;-68
2024/01/17 12:18:56;;;;;;;4.33;2.30;;;6.10;45.50;;;;;;5048263;28;47958;-67
2024/01/17 12:21:22;;;;;;;3.80;2.67;;;6.30;44.90;;;;;;5051120;28;46488;-67
2024/01/17 12:23:48;;;;;;;5.30;2.83;;;6.30;44.80;;;;;;5051467;28;46432;-67
2024/01/17 12:26:13;;;;;;;7.60;3.80;;;6.60;44.40;;;;;;5022950;28;46664;-66
2024/01/17 12:28:39;;;;;;;4.17;2.73;;;6.70;43.70;;;;;;5048089;28;46193;-67
2024/01/17 12:31:06;;;;;;;4.77;3.33;;;6.70;43.40;;;;;;5050372;28;46435;-67
2024/01/17 12:33:32;;;;;;;5.10;3.30;;;6.80;43.20;;;;;;5049458;28;46746;-67
2024/01/17 12:36:00;;;;;;;3.57;2.20;;;6.80;43.10;;;;;;5045224;28;46461;-67
2024/01/17 12:38:28;;;;;;;2.60;1.80;;;6.90;42.90;;;;;;5051470;28;46422;-67
2024/01/17 12:40:54;;;;;;;3.40;2.30;;;7.00;42.60;;;;;;5053462;28;46702;-67
2024/01/17 12:43:21;;;;;;;3.83;2.60;;;7.00;42.50;;;;;;5037178;28;45899;-66
2024/01/17 12:45:47;;;;;;;4.07;2.67;;;6.90;42.30;;;;;;5052584;28;46357;-66
2024/01/17 12:48:14;;;;;;;4.67;3.60;;;6.80;42.30;;;;;;5051588;28;46494;-67